• Join FlightAware (Why Join?)
  • Login
  • US Flag 
Rudolph Flight #1: Arrived! 
11:28AM EST


 

Airport Tracker/Info


-or-


 

Live Flight TrackerFlight Track Log ✈ N102WT ✈ 11-Mar-2014 ✈ KHWV - KALB

Flight Track Log - Related Links

Times and Time Zones

All times are in EDT time to prevent confusion due to time zone crossing. See the N102WT flight status page for this flight to view local times or setup timezone preferences in your user account.

Time Position Orientation Groundspeed Altitude Reporting Facility
EDT Latitude Longitude Course Direction KTS MPH feet Rate Location/Type
03:35PM 40.8333 -72.8833 37° Northeast 120 138 1,000  Level New York TRACON
03:36PM 40.8667 -72.8500 37° Northeast 135 155 1,900 900 Climbing New York TRACON
03:37PM 40.9000 -72.8500 360° North 123 142 2,800 840 Climbing New York TRACON
03:38PM 40.9167 -72.8833 303° West 104 120 3,700 840 Climbing New York TRACON
03:39PM 40.9333 -72.9167 304° West 113 130 4,500 840 Climbing New York TRACON
03:40PM 40.9667 -72.9333 339° North 119 137 5,300 1,020 Climbing New York TRACON
03:41PM 40.9833 -72.9500 323° Northwest 91 105 6,600 840 Climbing New York TRACON
03:42PM 41.0167 -72.9833 323° Northwest 109 125 7,100 180 Climbing New York TRACON
03:43PM 41.0333 -73.0167 304° West 135 155 7,000 -60 Descending New York TRACON
03:44PM 41.0667 -73.0333 339° North 130 150 7,000  Level New York TRACON
03:45PM 41.1000 -73.0667 323° Northwest 138 159 7,000  Level New York TRACON
03:46PM 41.1333 -73.1000 323° Northwest 150 173 7,000  Level New York TRACON
03:47PM 41.1667 -73.1333 323° Northwest 143 165 7,100  Climbing New York TRACON
03:48PM 41.2000 -73.1500 339° North 150 173 7,000 -60 Descending New York TRACON
03:50PM 41.2811 -73.1758 347° North 155 178 7,000  Level Boston Center
03:51PM 41.3203 -73.1942 341° North 147 169 7,000  Level Boston Center
03:52PM 41.3628 -73.2136 341° North 150 173 7,000  Level Boston Center
03:53PM 41.4039 -73.2289 344° North 156 180 7,000  Level Boston Center
03:54PM 41.4439 -73.2456 343° North 153 176 7,100  Climbing Boston Center
03:55PM 41.4844 -73.2619 343° North 153 176 7,000 -60 Descending Boston Center
03:56PM 41.5275 -73.2811 342° North 153 176 7,000  Level Boston Center
03:57PM 41.5694 -73.2994 342° North 157 181 7,000  Level Boston Center
03:58PM 41.6089 -73.3167 342° North 149 171 7,000  Level Boston Center
03:59PM 41.6506 -73.3347 342° North 156 180 7,000  Level Boston Center
04:00PM 41.6944 -73.3519 344° North 152 175 7,000  Level Boston Center
04:01PM 41.7339 -73.3697 341° North 151 174 7,000  Level Boston Center
04:02PM 41.7736 -73.3858 343° North 148 170 7,000  Level Boston Center
04:03PM 41.8164 -73.4050 342° North 152 175 7,000  Level Boston Center
04:04PM 41.8581 -73.4219 343° North 156 180 7,000  Level Boston Center
04:05PM 41.8989 -73.4372 344° North 152 175 7,000  Level Boston Center
04:06PM 41.9436 -73.4542 344° North 155 178 7,000  Level Boston Center
04:07PM 41.9828 -73.4747 339° North 152 175 7,000  Level Boston Center
04:08PM 42.0231 -73.4911 343° North 152 175 7,000  Level Boston Center
04:09PM 42.0467 -73.5014 342° North 151 174 7,000  Level Boston Center
04:10PM 42.0614 -73.5083 341° North 144 166 7,000  Level Boston Center
04:10PM 42.0678 -73.5142 326° Northwest 150 173 7,000  Level Boston Center
04:11PM 42.0989 -73.5239 347° North 149 171 7,000  Level Boston Center
04:11PM 42.1108 -73.5256 354° North 155 178 7,000  Level Boston Center
04:12PM 42.1428 -73.5264 359° North 155 178 7,000  Level Boston Center
04:12PM 42.1553 -73.5286 352° North 158 182 7,000  Level Boston Center
04:13PM 42.1911 -73.5203 10° North 157 181 7,000  Level Boston Center
04:13PM 42.1861 -73.5225 198° South 156 180 7,000  Level Boston Center
04:14PM 42.2367 -73.5064 13° North 167 192 7,000  Level Boston Center
04:14PM 42.2392 -73.5033 42° Northeast 162 186 7,000  Level Boston Center
04:15PM 42.2825 -73.4983 North 156 180 7,000  Level Boston Center
04:16PM 42.3239 -73.4861 12° North 161 185 7,000  Level Boston Center
04:16PM 42.3261 -73.4839 36° Northeast 160 184 7,000  Level Boston Center
04:17PM 42.3664 -73.4769 North 158 182 7,000  Level Boston Center
04:17PM 42.3714 -73.4769 360° North 159 183 7,000  Level Boston Center
04:18PM 42.4133 -73.4667 10° North 169 194 7,000  Level Boston Center
04:18PM 42.4203 -73.4644 13° North 166 191 7,000  Level Boston Center
04:19PM 42.4658 -73.4536 10° North 165 190 7,000  Level Boston Center
04:19PM 42.4675 -73.4525 26° Northeast 165 190 7,000 -720 Level Boston Center
04:20PM 42.5108 -73.4478 North 163 188 6,300 -840 Descending Boston Center
04:21PM 42.5558 -73.4500 358° North 179 206 5,500 -900 Descending Boston Center
04:21PM 42.5642 -73.4500 360° North 175 201 5,400 -540 Descending Boston Center
04:22PM 42.6050 -73.4517 358° North 174 200 5,000 -540 Descending Boston Center
04:22PM 42.6122 -73.4511 North 173 199 4,900 -600 Descending Boston Center
04:23PM 42.6519 -73.4528 358° North 170 196 4,400 -600 Descending Boston Center
04:23PM 42.6594 -73.4539 354° North 170 196 4,300 -720 Descending Boston Center
04:24PM 42.7000 -73.4600 354° North 173 199 3,700 -780 Descending Boston Center
04:24PM 42.7108 -73.4642 344° North 175 201 3,500 -240 Descending Boston Center
04:25PM 42.7386 -73.4842 332° Northwest 163 188 3,500  Level Boston Center
04:25PM 42.7453 -73.4969 305° West 150 173 3,500  Level Boston Center
04:26PM 42.7542 -73.5275 292° West 119 137 3,500 -240 Level Boston Center
04:26PM 42.7578 -73.5403 291° West 126 145 3,300 -840 Descending Boston Center
04:27PM 42.7525 -73.5850 261° West 144 166 2,600 -900 Descending Boston Center
04:27PM 42.7525 -73.5978 270° West 140 161 2,400 -240 Descending Boston Center
04:28PM 42.7500 -73.6336 265° West 129 148 2,400 60 Level Boston Center
04:28PM 42.7508 -73.6447 276° West 129 148 2,500 -420 Climbing Boston Center
04:29PM 42.7511 -73.6750 271° West 103 119 2,000 -600 Descending Boston Center
04:29PM 42.7514 -73.6842 272° West 110 127 1,900 -660 Descending Boston Center
04:30PM 42.7511 -73.7214 269° West 108 124 1,300 -600 Descending Boston Center
04:30PM 42.7508 -73.7256 265° West 110 127 1,300 -540 Level Boston Center
04:31PM 42.7497 -73.7647 268° West 107 123 700 -600 Descending Boston Center
04:31PM 42.7497 -73.7694 270° West 109 125 700 -420 Level Boston Center
04:32PM 42.7494 -73.8039 269° West 96 110 300 -420 Descending Boston Center
04:34PM 42.7491 -73.8020 103° East  Level Estimated
04:41PM 42.7491 -73.8020 North  Level Estimated